Terminal Aerodrome Forecast
Issued by NWS

Home | Current Version | Previous Version | Text Only | Print | Product List | Glossary On
Versions: 1 2 3 4 5 6 7 8 9 10 11 12 13 14 15 16 17 18 19 20 21 22 23 24 25 26 27 28
000
FTUS43 KGRB 200554
TAFRHI
TAF
KRHI 200554Z 2006/2106 11005KT P6SM SCT250
     FM200900 12006KT P6SM BKN150 WS010/17035KT
     FM201100 12007KT 5SM BR BKN150 WS010/20035KT
     FM201400 13008G13KT 3SM BR OVC050 WS010/17035KT
     FM201700 14011G19KT 3SM BR BKN018
     FM202200 14011G18KT 1SM -SHRA BR OVC003=

USA.gov is the U.S. government's official web portal to all federal, state and local government web resources and services.